Time;durP1;ratioP1;P1;durP2;ratioP2;P2;SDS_P1;SDS_P2;PMS_P1;PMS_P2;Temp;Humidity;BMP_temperature;BMP_pressure;BME280_temperature;BME280_humidity;BME280_pressure;Samples;Min_cycle;Max_cycle;Signal;HPM_P1;HPM_P2
2022/03/24 00:07:55;;;;;;;17.00;8.53;;;4.50;99.90;;;;;;21081494;28;20477;-74
2022/03/24 00:17:56;;;;;;;21.30;8.55;;;4.50;99.90;;;;;;21080189;28;20039;-74
2022/03/24 00:27:57;;;;;;;22.08;9.45;;;4.40;99.90;;;;;;21076544;28;20401;-74
2022/03/24 00:37:58;;;;;;;18.43;8.37;;;4.20;99.90;;;;;;21078621;28;20043;-74
2022/03/24 00:47:59;;;;;;;17.02;8.73;;;4.40;99.90;;;;;;21078629;28;20278;-74
2022/03/24 00:58:00;;;;;;;15.27;8.17;;;4.00;99.90;;;;;;21075803;28;20032;-75
2022/03/24 01:08:00;;;;;;;15.87;8.43;;;4.10;99.90;;;;;;21057687;28;20782;-75
2022/03/24 01:18:01;;;;;;;25.58;10.07;;;3.60;99.90;;;;;;21057343;28;20454;-74
2022/03/24 01:28:03;;;;;;;19.52;9.82;;;3.60;99.90;;;;;;21055323;28;20036;-74
2022/03/24 01:38:03;;;;;;;;;;;3.50;99.90;;;;;;21056180;28;20032;-74
2022/03/24 01:48:08;;;;;;;28.73;10.83;;;3.40;99.90;;;;;;21073614;28;19912;-74
2022/03/24 01:58:11;;;;;;;27.13;9.90;;;3.20;99.90;;;;;;21084068;28;20278;-74
2022/03/24 02:08:12;;;;;;;23.48;10.65;;;3.00;99.90;;;;;;21070905;28;20084;-74
2022/03/24 02:18:13;;;;;;;;;;;2.90;99.90;;;;;;21053962;28;20055;-74
2022/03/24 02:28:15;;;;;;;20.63;9.55;;;3.20;99.90;;;;;;20983586;23;19926;-78
2022/03/24 02:38:19;;;;;;;;;;;3.10;99.90;;;;;;20993150;28;20032;-78
2022/03/24 02:48:21;;;;;;;20.23;9.50;;;2.60;99.90;;;;;;21009080;28;19916;-78
2022/03/24 02:58:22;;;;;;;21.83;9.95;;;2.50;99.90;;;;;;20989860;28;20398;-78
2022/03/24 03:08:23;;;;;;;24.48;10.05;;;2.30;99.90;;;;;;21005185;28;20119;-78
2022/03/24 03:18:24;;;;;;;17.08;8.82;;;2.40;99.90;;;;;;20987602;28;20479;-78
2022/03/24 03:28:27;;;;;;;20.73;8.50;;;2.50;99.90;;;;;;21004766;28;20039;-78
2022/03/24 03:38:28;;;;;;;23.58;8.85;;;1.70;99.90;;;;;;21003141;28;20496;-78
2022/03/24 03:48:30;;;;;;;21.55;10.15;;;1.70;99.90;;;;;;21003779;28;20057;-78
2022/03/24 03:58:31;;;;;;;23.75;10.27;;;1.60;99.90;;;;;;21001985;28;20048;-78
2022/03/24 04:08:33;;;;;;;24.33;10.52;;;1.80;99.90;;;;;;21000403;28;20035;-77
2022/03/24 04:18:34;;;;;;;20.67;10.05;;;1.80;99.90;;;;;;20980161;28;20068;-78
2022/03/24 04:28:35;;;;;;;19.70;9.82;;;1.60;99.90;;;;;;21000420;28;20033;-78
2022/03/24 04:38:37;;;;;;;18.85;9.30;;;1.70;99.90;;;;;;21000179;28;20490;-78
2022/03/24 04:48:37;;;;;;;17.85;8.93;;;1.60;99.90;;;;;;20982103;28;20037;-78
2022/03/24 04:58:39;;;;;;;18.92;9.70;;;1.40;99.90;;;;;;20993962;28;20506;-78
2022/03/24 05:08:39;;;;;;;21.10;9.02;;;1.60;99.90;;;;;;20993344;28;20102;-77
2022/03/24 05:18:40;;;;;;;21.70;9.07;;;1.00;99.90;;;;;;20993345;28;20033;-77
2022/03/24 05:28:41;;;;;;;19.67;9.40;;;1.10;99.90;;;;;;20995983;28;20039;-77
2022/03/24 05:38:42;;;;;;;19.88;9.57;;;1.10;99.90;;;;;;20990898;28;20087;-78
2022/03/24 05:48:43;;;;;;;24.20;11.60;;;1.00;99.90;;;;;;21008231;28;20493;-77
2022/03/24 05:59:10;;;;;;;24.15;10.93;;;1.20;99.90;;;;;;20920641;28;20040;-77
2022/03/24 06:09:11;;;;;;;28.13;11.45;;;1.30;99.90;;;;;;20875898;28;20155;-78
2022/03/24 06:19:12;;;;;;;29.38;11.75;;;1.70;99.90;;;;;;20821534;28;20038;-75
2022/03/24 06:29:13;;;;;;;;;;;2.50;99.90;;;;;;20821910;28;20041;-76
2022/03/24 06:39:15;;;;;;;28.58;13.23;;;3.30;99.90;;;;;;20834316;28;19971;-76
2022/03/24 06:49:16;;;;;;;28.35;12.60;;;4.10;99.90;;;;;;20834646;28;20438;-76
2022/03/24 06:59:17;;;;;;;24.33;11.73;;;4.80;99.90;;;;;;20945288;28;20078;-76
2022/03/24 07:09:17;;;;;;;23.67;11.97;;;5.80;99.90;;;;;;20980747;28;20275;-76
2022/03/24 07:19:21;;;;;;;22.03;11.80;;;7.00;99.90;;;;;;20981486;28;20037;-76
2022/03/24 07:29:22;;;;;;;21.23;11.88;;;7.70;99.90;;;;;;20981107;28;20041;-76
2022/03/24 07:39:23;;;;;;;23.73;12.13;;;8.50;99.90;;;;;;20963072;28;20470;-78
2022/03/24 07:49:24;;;;;;;18.90;11.97;;;8.30;99.90;;;;;;20981060;28;20034;-78
2022/03/24 07:59:24;;;;;;;20.07;11.10;;;8.70;99.90;;;;;;20979929;28;20033;-78
2022/03/24 08:09:25;;;;;;;24.40;13.30;;;9.30;99.90;;;;;;21002869;28;20490;-78
2022/03/24 08:29:31;;;;;;;25.63;13.13;;;10.80;99.90;;;;;;20998790;23;20525;-76
2022/03/24 08:39:32;;;;;;;23.83;12.77;;;11.80;99.90;;;;;;20991543;28;20032;-77
2022/03/24 08:49:33;;;;;;;23.10;12.37;;;12.40;99.90;;;;;;20990947;28;20036;-76
2022/03/24 08:59:35;;;;;;;30.70;13.87;;;13.40;99.90;;;;;;20992792;28;20028;-77
2022/03/24 09:09:35;;;;;;;;;;;14.50;99.90;;;;;;20991061;28;20097;-77
2022/03/24 09:19:36;;;;;;;26.13;14.20;;;15.70;99.90;;;;;;20989741;28;19912;-77
2022/03/24 09:29:37;;;;;;;26.90;14.83;;;16.40;99.90;;;;;;20992427;28;20074;-77
2022/03/24 09:39:40;;;;;;;28.90;13.67;;;16.50;99.90;;;;;;20978153;28;20031;-77
2022/03/24 09:49:42;;;;;;;24.33;13.95;;;17.20;97.00;;;;;;20980654;28;20445;-78
2022/03/24 09:59:43;;;;;;;30.67;15.40;;;17.90;95.30;;;;;;20990884;28;20028;-77
2022/03/24 10:09:47;;;;;;;22.90;15.02;;;19.60;92.70;;;;;;20992995;28;20111;-77
2022/03/24 10:20:12;;;;;;;29.70;15.07;;;19.00;91.80;;;;;;21002344;28;20043;-77
2022/03/24 10:30:12;;;;;;;30.30;15.57;;;19.00;92.20;;;;;;21008096;28;20033;-78
2022/03/24 10:40:13;;;;;;;52.03;18.20;;;20.50;92.10;;;;;;21004761;28;20047;-78
2022/03/24 10:50:37;;;;;;;31.93;16.27;;;20.30;91.30;;;;;;21001911;28;20099;-77
2022/03/24 11:00:42;;;;;;;32.63;15.27;;;20.80;92.40;;;;;;20999472;28;20090;-77
2022/03/24 11:10:46;;;;;;;39.15;17.70;;;22.80;82.30;;;;;;20980281;28;20028;-76
2022/03/24 11:20:49;;;;;;;40.83;16.67;;;22.00;85.30;;;;;;20997440;28;20410;-77
2022/03/24 11:30:52;;;;;;;36.67;18.17;;;22.60;80.20;;;;;;20982398;28;20725;-77
2022/03/24 11:41:01;;;;;;;34.42;16.88;;;23.30;76.80;;;;;;20982445;28;20037;-77
2022/03/24 11:51:14;;;;;;;32.03;16.88;;;22.70;77.90;;;;;;21000928;28;20089;-78
2022/03/24 12:01:19;;;;;;;32.28;16.00;;;22.90;78.60;;;;;;21000057;28;20051;-78
2022/03/24 12:11:32;;;;;;;31.45;15.80;;;23.30;75.20;;;;;;20999746;28;20037;-77
2022/03/24 12:21:33;;;;;;;28.27;15.98;;;21.00;79.50;;;;;;20929603;28;20035;-78
2022/03/24 12:31:54;;;;;;;26.43;15.27;;;23.20;73.40;;;;;;20913137;28;20549;-77
2022/03/24 12:42:06;;;;;;;25.70;15.13;;;23.20;68.30;;;;;;20909961;28;20665;-77
2022/03/24 12:52:08;;;;;;;21.23;13.20;;;23.40;68.00;;;;;;20911031;28;20021;-78
2022/03/24 13:02:09;;;;;;;23.80;15.07;;;23.50;66.40;;;;;;20909809;28;20049;-77
2022/03/24 13:12:12;;;;;;;;;;;23.90;67.50;;;;;;20912859;28;20033;-78
2022/03/24 13:22:22;;;;;;;27.70;13.07;;;23.30;68.60;;;;;;20907260;28;19912;-77
2022/03/24 13:32:27;;;;;;;19.85;12.07;;;23.50;65.80;;;;;;20888706;28;20033;-77
2022/03/24 13:42:28;;;;;;;22.67;12.32;;;23.60;63.00;;;;;;20888402;28;20041;-77
2022/03/24 13:52:29;;;;;;;19.53;11.10;;;23.40;63.90;;;;;;20914688;28;20395;-77
2022/03/24 14:02:30;;;;;;;19.40;11.70;;;23.60;63.20;;;;;;20925779;28;20642;-77
2022/03/24 14:12:31;;;;;;;20.13;13.17;;;23.00;62.60;;;;;;20923061;28;20029;-78
2022/03/24 14:22:46;;;;;;;17.17;10.23;;;22.20;66.10;;;;;;20948641;22;20075;-78
2022/03/24 14:32:51;;;;;;;17.20;11.10;;;22.40;63.90;;;;;;20981662;28;20118;-78
2022/03/24 14:42:52;;;;;;;15.70;10.23;;;22.20;62.00;;;;;;20882658;28;20033;-78
2022/03/24 14:52:53;;;;;;;18.43;11.20;;;23.00;61.70;;;;;;20835893;28;20109;-80
2022/03/24 15:02:54;;;;;;;19.25;10.43;;;23.00;60.80;;;;;;20848659;28;20124;-79
2022/03/24 15:12:56;;;;;;;20.33;10.70;;;22.90;60.20;;;;;;20843295;28;20029;-79
2022/03/24 15:22:57;;;;;;;15.63;10.23;;;23.20;59.90;;;;;;20840724;28;20371;-79
2022/03/24 15:32:58;;;;;;;16.40;10.60;;;23.20;59.50;;;;;;20849912;28;20400;-78
2022/03/24 15:43:02;;;;;;;14.83;9.63;;;23.40;57.80;;;;;;20834994;28;20029;-78
2022/03/24 15:53:03;;;;;;;18.20;10.82;;;22.20;62.90;;;;;;20834278;28;20083;-78
2022/03/24 16:03:05;;;;;;;19.27;11.37;;;22.00;60.60;;;;;;20832542;28;20033;-78
2022/03/24 16:13:06;;;;;;;17.00;10.45;;;21.30;63.40;;;;;;20829115;28;20521;-78
2022/03/24 16:23:07;;;;;;;17.23;10.23;;;20.50;61.50;;;;;;20868083;28;20041;-78
2022/03/24 16:33:08;;;;;;;17.15;9.82;;;20.00;64.30;;;;;;20841263;28;20029;-78
2022/03/24 16:43:09;;;;;;;18.67;10.57;;;19.70;62.80;;;;;;20826119;28;20030;-78
2022/03/24 16:53:10;;;;;;;18.57;10.10;;;19.30;63.40;;;;;;20823543;28;20490;-78
2022/03/24 17:03:11;;;;;;;28.03;8.27;;;18.90;66.20;;;;;;20837248;28;20029;-77
2022/03/24 17:13:12;;;;;;;13.87;8.13;;;18.30;72.20;;;;;;20874435;28;20036;-77
2022/03/24 17:23:13;;;;;;;12.87;7.67;;;17.40;80.00;;;;;;20879504;28;20146;-77
2022/03/24 17:33:13;;;;;;;17.17;8.80;;;16.50;82.00;;;;;;20897829;28;20039;-79
2022/03/24 17:43:14;;;;;;;19.57;10.03;;;15.90;84.20;;;;;;20904098;28;20029;-77
2022/03/24 17:53:15;;;;;;;21.00;10.63;;;15.30;86.20;;;;;;20901737;28;20095;-77
2022/03/24 18:03:16;;;;;;;20.17;10.30;;;14.00;90.70;;;;;;20884220;28;20037;-77
2022/03/24 18:13:17;;;;;;;19.83;10.53;;;13.40;91.80;;;;;;20882691;28;20099;-77
2022/03/24 18:23:18;;;;;;;13.10;7.83;;;12.20;92.40;;;;;;20911041;28;20041;-80
2022/03/24 18:33:19;;;;;;;17.40;7.87;;;12.00;92.90;;;;;;20885460;28;20036;-79
2022/03/24 18:43:21;;;;;;;18.90;8.43;;;11.30;94.50;;;;;;20879795;28;20057;-79
2022/03/24 18:53:22;;;;;;;21.40;10.73;;;11.40;95.20;;;;;;20911706;28;20683;-79
2022/03/24 19:03:23;;;;;;;32.27;12.07;;;11.40;94.10;;;;;;20870026;28;20036;-78
2022/03/24 19:13:24;;;;;;;26.00;11.67;;;10.60;96.40;;;;;;20840583;28;20061;-79
2022/03/24 19:23:26;;;;;;;24.97;11.17;;;10.30;96.20;;;;;;20820507;28;20447;-78
2022/03/24 19:33:27;;;;;;;24.02;11.38;;;10.30;96.80;;;;;;20820210;28;20049;-80
2022/03/24 19:43:29;;;;;;;23.47;11.23;;;9.90;98.10;;;;;;20836955;28;20030;-78
2022/03/24 19:53:29;;;;;;;25.20;11.15;;;9.80;99.20;;;;;;20838808;28;20026;-78
2022/03/24 20:03:30;;;;;;;33.93;12.40;;;9.80;99.60;;;;;;20820196;28;20087;-78
2022/03/24 20:13:32;;;;;;;26.17;11.63;;;9.10;99.90;;;;;;20831136;28;20034;-79
2022/03/24 20:23:34;;;;;;;22.65;11.45;;;9.30;99.90;;;;;;20868505;22;20180;-75
2022/03/24 20:33:35;;;;;;;24.77;10.70;;;9.00;99.90;;;;;;20891035;28;20064;-75
2022/03/24 20:43:35;;;;;;;22.33;11.20;;;9.00;99.90;;;;;;20908361;28;20426;-74
2022/03/24 20:53:36;;;;;;;22.93;8.87;;;8.60;99.90;;;;;;20909445;28;20394;-75
2022/03/24 21:03:37;;;;;;;16.87;7.93;;;8.60;99.90;;;;;;20906471;28;20729;-75
2022/03/24 21:13:38;;;;;;;23.77;10.37;;;8.30;99.90;;;;;;20906928;28;20060;-75
2022/03/24 21:23:39;;;;;;;18.60;9.77;;;8.10;99.90;;;;;;20913267;28;20462;-75
2022/03/24 21:33:40;;;;;;;20.60;11.27;;;8.20;99.90;;;;;;20966755;28;20410;-75
2022/03/24 21:43:41;;;;;;;22.10;10.07;;;7.70;99.90;;;;;;20889144;28;20043;-75
2022/03/24 21:53:42;;;;;;;22.43;10.23;;;7.90;99.90;;;;;;20863891;28;20033;-75
2022/03/24 22:03:43;;;;;;;22.93;10.23;;;8.00;99.90;;;;;;20885257;28;20036;-75
2022/03/24 22:13:43;;;;;;;18.03;8.70;;;7.90;99.90;;;;;;20885852;28;20028;-75
2022/03/24 22:23:44;;;;;;;21.67;10.90;;;7.10;99.90;;;;;;20902841;28;20041;-75
2022/03/24 22:33:45;;;;;;;23.47;11.67;;;7.00;99.90;;;;;;20912861;28;20021;-75
2022/03/24 22:43:46;;;;;;;22.23;10.97;;;6.60;99.90;;;;;;20917146;28;20029;-75
2022/03/24 22:53:47;;;;;;;24.13;11.47;;;6.50;99.90;;;;;;20916997;28;20486;-75
2022/03/24 23:03:48;;;;;;;26.93;11.77;;;6.20;99.90;;;;;;20898386;28;20041;-74
2022/03/24 23:13:48;;;;;;;27.43;11.27;;;6.20;99.90;;;;;;20915680;28;20417;-75
2022/03/24 23:23:49;;;;;;;24.33;11.27;;;6.40;99.90;;;;;;20914075;28;20060;-75
2022/03/24 23:33:51;;;;;;;28.30;11.30;;;6.00;99.90;;;;;;20914023;28;20107;-75
2022/03/24 23:43:52;;;;;;;24.42;11.68;;;5.90;99.90;;;;;;20913191;28;20029;-75
2022/03/24 23:53:52;;;;;;;20.23;9.97;;;6.00;99.90;;;;;;20913785;28;20392;-75
